Flight Track Log - Related Links

Times and Time Zones

All times are in EST time to prevent confusion due to time zone crossing. See the RPA3284 flight status page for this flight to view local times or setup timezone preferences in your user account.

Time Position Orientation Groundspeed Altitude Reporting Facility
EST Latitude Longitude Course Direction KTS MPH feet Rate Location/Type
Mon 02:53:29 PM 32.9810 -80.0714 76° East  Level FlightAware Approximate
Mon 02:59:38 PM 33.0014 -79.9772 10° North 251 289 7,100  Level Jacksonville Center
Mon 03:00:38 PM 33.0742 -79.9625 10° North 256 295 9,900 2,471 Climbing Jacksonville Center
Mon 03:01:37 PM 33.1592 -79.9447 10° North 280 322 12,000 2,824 Climbing Jacksonville Center
Mon 03:02:37 PM 33.2444 -79.9272 11° North 297 342 15,500 2,950 Climbing Jacksonville Center
Mon 03:03:37 PM 33.3336 -79.9067 10° North 307 353 17,900 1,736 Climbing Jacksonville Center
Mon 03:04:38 PM 33.4250 -79.8864 13° North 323 372 19,000 550 Climbing Jacksonville Center
Mon 03:05:37 PM 33.5142 -79.8608 13° North 323 372 19,000  Level Jacksonville Center
Mon 03:06:37 PM 33.6053 -79.8353 13° North 328 377 19,000  Level Jacksonville Center
Mon 03:07:37 PM 33.6964 -79.8097 13° North 333 383 19,000  Level Jacksonville Center
Mon 03:08:37 PM 33.7878 -79.7839 15° North 333 383 19,000  Level Jacksonville Center
Mon 03:09:37 PM 33.8767 -79.7558 10° North 333 383 19,000  Level Jacksonville Center
Mon 03:10:37 PM 33.9700 -79.7350 15° North 333 383 19,000  Level Jacksonville Center
Mon 03:11:37 PM 34.0569 -79.7067 13° North 333 383 19,000  Level Jacksonville Center
Mon 03:12:37 PM 34.1503 -79.6808 North 333 383 19,000  Level Jacksonville Center
Mon 03:13:37 PM 34.2378 -79.6775 314° West 327 376 19,000  Level Jacksonville Center
Mon 03:14:37 PM 34.3025 -79.7581 310° West 290 334 19,000  Level Jacksonville Center
Mon 03:15:37 PM 34.3544 -79.8342 307° West 282 325 19,000  Level Jacksonville Center
Mon 03:16:37 PM 34.4042 -79.9131 311° West 288 331 19,000 -450 Level Jacksonville Center
Mon 03:17:37 PM 34.4558 -79.9842 309° West 288 331 18,100 -1,200 Descending Jacksonville Center
Mon 03:18:37 PM 34.5056 -80.0581 308° West 294 338 16,600 -1,453 Descending Jacksonville Center
Mon 03:19:45 PM 34.5600 -80.1417 308° West 280 322 15,000 -1,432 Descending FAA TRACON SMA TRACON (SMA)
Mon 03:20:05 PM 34.5750 -80.1647 309° West 280 322 14,500 -1,500 Descending FAA TRACON SMA TRACON (SMA)
Mon 03:20:25 PM 34.5917 -80.1900 310° West 282 325 14,000 -1,500 Descending FAA TRACON SMA TRACON (SMA)
Mon 03:20:45 PM 34.6100 -80.2161 310° West 283 326 13,500 -1,500 Descending FAA TRACON SMA TRACON (SMA)
Mon 03:21:05 PM 34.6258 -80.2394 310° West 283 326 13,000 -1,500 Descending FAA TRACON SMA TRACON (SMA)
Mon 03:21:25 PM 34.6425 -80.2636 312° West 281 323 12,500 -1,500 Descending FAA TRACON SMA TRACON (SMA)
Mon 03:21:45 PM 34.6603 -80.2875 313° West 277 319 12,000 -1,500 Descending FAA TRACON SMA TRACON (SMA)
Mon 03:22:05 PM 34.6764 -80.3083 315° West 276 318 11,500 -1,350 Descending FAA TRACON SMA TRACON (SMA)
Mon 03:22:25 PM 34.6931 -80.3289 315° West 276 318 11,100 -750 Descending FAA TRACON SMA TRACON (SMA)
Mon 03:22:45 PM 34.7139 -80.3544 314° West 275 316 11,000 -300 Descending FAA TRACON SMA TRACON (SMA)
Mon 03:23:05 PM 34.7306 -80.3753 311° West 276 318 10,900 -840 Descending FAA TRACON SMA TRACON (SMA)
Mon 03:23:35 PM 34.7592 -80.4158 315° West 279 321 10,300 -593 Descending Atlanta Center
Mon 03:24:36 PM 34.8133 -80.4817 314° West 278 320 10,000 -149 Descending Atlanta Center
Mon 03:25:36 PM 34.8653 -80.5478 314° West 275 316 10,000  Level Atlanta Center
Mon 03:26:37 PM 34.9194 -80.6164 320° Northwest 274 315 10,000  Level Atlanta Center
Mon 03:27:05 PM 34.9444 -80.6419 315° West 272 313 10,000  Level FAA TRACON SMA TRACON (SMA)
Mon 03:27:25 PM 34.9608 -80.6622 314° West 273 314 10,000  Level FAA TRACON SMA TRACON (SMA)
Mon 03:27:45 PM 34.9811 -80.6878 314° West 272 313 10,000  Level FAA TRACON SMA TRACON (SMA)
Mon 03:28:05 PM 34.9972 -80.7083 314° West 271 312 10,000  Level FAA TRACON SMA TRACON (SMA)
Mon 03:28:25 PM 35.0133 -80.7286 314° West 272 313 10,000  Level FAA TRACON SMA TRACON (SMA)
Mon 03:28:45 PM 35.0336 -80.7542 279° West 272 313 10,000  Level FAA TRACON SMA TRACON (SMA)
Mon 03:28:45 PM 35.0339 -80.7564 318° Northwest 272 313 10,000  Level Atlanta Center
Mon 03:29:39 PM 35.0853 -80.8128 355° North 280 322 10,000 -826 Level Atlanta Center
Mon 03:30:34 PM 35.1586 -80.8200 35° Northeast 282 325 8,500 -1,644 Descending Atlanta Center
Mon 03:32:05 PM 35.2492 -80.7436 33° Northeast 286 329 6,000 -1,459 Descending FAA TRACON SMA TRACON (SMA)
Mon 03:32:25 PM 35.2739 -80.7236 358° North 289 333 5,800 -750 Descending FAA TRACON SMA TRACON (SMA)
Mon 03:32:45 PM 35.2908 -80.7242 323° Northwest 281 323 5,500 -750 Descending FAA TRACON SMA TRACON (SMA)
Mon 03:33:05 PM 35.3106 -80.7425 279° West 239 275 5,300 -600 Descending FAA TRACON SMA TRACON (SMA)
Mon 03:33:25 PM 35.3131 -80.7628 255° West 219 252 5,100 -450 Descending FAA TRACON SMA TRACON (SMA)
Mon 03:33:45 PM 35.3092 -80.7811 255° West 193 222 5,000 -1,200 Descending FAA TRACON SMA TRACON (SMA)
Mon 03:34:05 PM 35.3036 -80.8072 247° West 175 201 4,300 -1,800 Descending FAA TRACON SMA TRACON (SMA)
Mon 03:34:25 PM 35.2978 -80.8242 236° Southwest 172 198 3,800 -1,500 Descending FAA TRACON SMA TRACON (SMA)
Mon 03:34:45 PM 35.2894 -80.8392 229° Southwest 173 199 3,300 -1,350 Descending FAA TRACON SMA TRACON (SMA)
Mon 03:35:05 PM 35.2822 -80.8494 229° Southwest 172 198 2,900 -1,200 Descending FAA TRACON SMA TRACON (SMA)

Login

Don't have an account? Register now (free) for customized features, flight alerts, and more!